sensor_id;sensor_type;location;lat;lon;timestamp;temperature;humidity
10873;DHT22;34586;53.616;10.032;2022-10-10T00:01:08;8.40;99.90
10873;DHT22;34586;53.616;10.032;2022-10-10T00:03:34;8.40;99.90
10873;DHT22;34586;53.616;10.032;2022-10-10T00:06:00;8.40;99.90
10873;DHT22;34586;53.616;10.032;2022-10-10T00:08:25;8.40;99.90
10873;DHT22;34586;53.616;10.032;2022-10-10T00:10:51;8.40;99.90
10873;DHT22;34586;53.616;10.032;2022-10-10T00:13:16;8.40;99.90
10873;DHT22;34586;53.616;10.032;2022-10-10T00:15:43;8.40;99.90
10873;DHT22;34586;53.616;10.032;2022-10-10T00:18:08;8.30;99.90
10873;DHT22;34586;53.616;10.032;2022-10-10T00:20:34;8.40;99.90
10873;DHT22;34586;53.616;10.032;2022-10-10T00:23:00;8.40;99.90
10873;DHT22;34586;53.616;10.032;2022-10-10T00:25:25;8.60;99.90
10873;DHT22;34586;53.616;10.032;2022-10-10T00:27:51;8.40;99.90
10873;DHT22;34586;53.616;10.032;2022-10-10T00:30:17;8.40;99.90
10873;DHT22;34586;53.616;10.032;2022-10-10T00:32:42;8.40;99.90
10873;DHT22;34586;53.616;10.032;2022-10-10T00:35:08;8.50;99.90
10873;DHT22;34586;53.616;10.032;2022-10-10T00:37:34;8.50;99.90
10873;DHT22;34586;53.616;10.032;2022-10-10T00:39:59;8.50;99.90
10873;DHT22;34586;53.616;10.032;2022-10-10T00:42:25;8.50;99.90
10873;DHT22;34586;53.616;10.032;2022-10-10T00:48:15;8.40;99.90
10873;DHT22;34586;53.616;10.032;2022-10-10T00:51:03;8.40;94.60
10873;DHT22;34586;53.616;10.032;2022-10-10T00:56:03;8.50;99.90
10873;DHT22;34586;53.616;10.032;2022-10-10T00:58:29;8.40;94.50
10873;DHT22;34586;53.616;10.032;2022-10-10T01:00:56;8.40;98.60
10873;DHT22;34586;53.616;10.032;2022-10-10T01:03:21;8.40;99.50
10873;DHT22;34586;53.616;10.032;2022-10-10T01:05:48;8.40;95.70
10873;DHT22;34586;53.616;10.032;2022-10-10T01:08:15;8.50;95.40
10873;DHT22;34586;53.616;10.032;2022-10-10T01:11:00;8.40;95.90
10873;DHT22;34586;53.616;10.032;2022-10-10T01:16:39;8.40;90.20
10873;DHT22;34586;53.616;10.032;2022-10-10T01:30:16;8.40;91.20
10873;DHT22;34586;53.616;10.032;2022-10-10T01:33:03;8.50;92.70
10873;DHT22;34586;53.616;10.032;2022-10-10T01:41:13;8.50;78.70
10873;DHT22;34586;53.616;10.032;2022-10-10T01:43:40;8.50;89.10
10873;DHT22;34586;53.616;10.032;2022-10-10T01:46:14;8.50;59.30
10873;DHT22;34586;53.616;10.032;2022-10-10T01:48:41;8.50;56.30
10873;DHT22;34586;53.616;10.032;2022-10-10T01:51:32;8.50;64.90
10873;DHT22;34586;53.616;10.032;2022-10-10T01:54:12;8.50;64.10
10873;DHT22;34586;53.616;10.032;2022-10-10T02:04:46;8.40;61.20
10873;DHT22;34586;53.616;10.032;2022-10-10T02:09:58;8.40;69.80
10873;DHT22;34586;53.616;10.032;2022-10-10T02:12:25;8.40;59.90
10873;DHT22;34586;53.616;10.032;2022-10-10T02:14:56;8.40;60.30
10873;DHT22;34586;53.616;10.032;2022-10-10T02:17:24;8.40;51.20
10873;DHT22;34586;53.616;10.032;2022-10-10T02:19:53;8.40;60.20
10873;DHT22;34586;53.616;10.032;2022-10-10T02:22:21;8.40;55.20
10873;DHT22;34586;53.616;10.032;2022-10-10T02:24:47;8.40;51.50
10873;DHT22;34586;53.616;10.032;2022-10-10T02:27:30;8.40;63.90
10873;DHT22;34586;53.616;10.032;2022-10-10T02:29:59;8.30;51.30
10873;DHT22;34586;53.616;10.032;2022-10-10T02:32:41;8.30;46.50
10873;DHT22;34586;53.616;10.032;2022-10-10T02:35:14;8.30;66.80
10873;DHT22;34586;53.616;10.032;2022-10-10T02:37:41;8.30;74.10
10873;DHT22;34586;53.616;10.032;2022-10-10T02:40:12;8.30;69.40
10873;DHT22;34586;53.616;10.032;2022-10-10T02:42:39;8.30;63.90
10873;DHT22;34586;53.616;10.032;2022-10-10T02:45:05;8.30;55.20
10873;DHT22;34586;53.616;10.032;2022-10-10T02:47:31;8.30;62.40
10873;DHT22;34586;53.616;10.032;2022-10-10T02:49:57;8.30;69.10
10873;DHT22;34586;53.616;10.032;2022-10-10T02:52:23;8.30;76.10
10873;DHT22;34586;53.616;10.032;2022-10-10T02:54:48;8.30;61.60
10873;DHT22;34586;53.616;10.032;2022-10-10T02:57:14;8.30;86.00
10873;DHT22;34586;53.616;10.032;2022-10-10T02:59:40;8.30;58.70
10873;DHT22;34586;53.616;10.032;2022-10-10T03:02:05;8.30;73.50
10873;DHT22;34586;53.616;10.032;2022-10-10T03:04:33;8.30;45.80
10873;DHT22;34586;53.616;10.032;2022-10-10T03:06:58;8.30;58.50
10873;DHT22;34586;53.616;10.032;2022-10-10T03:09:24;8.20;63.60
10873;DHT22;34586;53.616;10.032;2022-10-10T03:11:49;8.20;70.60
10873;DHT22;34586;53.616;10.032;2022-10-10T03:14:15;8.20;46.70
10873;DHT22;34586;53.616;10.032;2022-10-10T03:16:40;8.20;46.20
10873;DHT22;34586;53.616;10.032;2022-10-10T03:19:06;8.20;53.70
10873;DHT22;34586;53.616;10.032;2022-10-10T03:21:34;8.20;61.80
10873;DHT22;34586;53.616;10.032;2022-10-10T03:23:59;8.20;62.40
10873;DHT22;34586;53.616;10.032;2022-10-10T03:26:25;8.20;63.70
10873;DHT22;34586;53.616;10.032;2022-10-10T03:28:50;8.20;53.80
10873;DHT22;34586;53.616;10.032;2022-10-10T03:31:16;8.20;64.80
10873;DHT22;34586;53.616;10.032;2022-10-10T03:33:42;8.20;65.10
10873;DHT22;34586;53.616;10.032;2022-10-10T03:36:07;8.20;44.30
10873;DHT22;34586;53.616;10.032;2022-10-10T03:38:33;8.20;77.40
10873;DHT22;34586;53.616;10.032;2022-10-10T03:40:59;8.10;71.70
10873;DHT22;34586;53.616;10.032;2022-10-10T03:43:24;8.10;74.70
10873;DHT22;34586;53.616;10.032;2022-10-10T03:45:50;8.10;72.20
10873;DHT22;34586;53.616;10.032;2022-10-10T03:48:16;8.10;77.70
10873;DHT22;34586;53.616;10.032;2022-10-10T03:50:41;8.10;84.30
10873;DHT22;34586;53.616;10.032;2022-10-10T03:53:07;8.10;65.20
10873;DHT22;34586;53.616;10.032;2022-10-10T03:55:33;8.00;85.70
10873;DHT22;34586;53.616;10.032;2022-10-10T03:57:58;8.00;85.10
10873;DHT22;34586;53.616;10.032;2022-10-10T04:00:24;8.00;65.50
10873;DHT22;34586;53.616;10.032;2022-10-10T04:02:49;8.00;73.00
10873;DHT22;34586;53.616;10.032;2022-10-10T04:05:15;8.00;70.00
10873;DHT22;34586;53.616;10.032;2022-10-10T04:07:41;8.00;84.50
10873;DHT22;34586;53.616;10.032;2022-10-10T04:10:07;8.00;82.50
10873;DHT22;34586;53.616;10.032;2022-10-10T04:12:34;8.00;68.60
10873;DHT22;34586;53.616;10.032;2022-10-10T04:14:59;8.00;90.00
10873;DHT22;34586;53.616;10.032;2022-10-10T04:17:25;7.90;85.60
10873;DHT22;34586;53.616;10.032;2022-10-10T04:19:50;7.90;94.50
10873;DHT22;34586;53.616;10.032;2022-10-10T04:22:16;7.90;76.00
10873;DHT22;34586;53.616;10.032;2022-10-10T04:24:42;7.90;90.90
10873;DHT22;34586;53.616;10.032;2022-10-10T04:27:08;7.90;93.40
10873;DHT22;34586;53.616;10.032;2022-10-10T04:29:34;7.90;93.60
10873;DHT22;34586;53.616;10.032;2022-10-10T04:31:59;7.80;85.20
10873;DHT22;34586;53.616;10.032;2022-10-10T04:34:25;7.80;92.60
10873;DHT22;34586;53.616;10.032;2022-10-10T04:36:50;7.80;98.60
10873;DHT22;34586;53.616;10.032;2022-10-10T04:39:16;7.80;95.60
10873;DHT22;34586;53.616;10.032;2022-10-10T04:41:42;7.80;93.80
10873;DHT22;34586;53.616;10.032;2022-10-10T04:44:07;7.80;98.90
10873;DHT22;34586;53.616;10.032;2022-10-10T04:46:33;7.80;99.90
10873;DHT22;34586;53.616;10.032;2022-10-10T04:48:58;7.80;96.00
10873;DHT22;34586;53.616;10.032;2022-10-10T04:51:24;7.70;99.90
10873;DHT22;34586;53.616;10.032;2022-10-10T04:53:50;7.70;97.20
10873;DHT22;34586;53.616;10.032;2022-10-10T04:56:15;7.70;93.50
10873;DHT22;34586;53.616;10.032;2022-10-10T04:58:41;7.70;99.90
10873;DHT22;34586;53.616;10.032;2022-10-10T05:01:06;7.70;84.80
10873;DHT22;34586;53.616;10.032;2022-10-10T05:03:32;7.60;99.20
10873;DHT22;34586;53.616;10.032;2022-10-10T05:05:57;7.60;99.90
10873;DHT22;34586;53.616;10.032;2022-10-10T05:08:23;7.60;99.90
10873;DHT22;34586;53.616;10.032;2022-10-10T05:10:51;7.60;99.90
10873;DHT22;34586;53.616;10.032;2022-10-10T05:13:17;7.60;99.90
10873;DHT22;34586;53.616;10.032;2022-10-10T05:15:42;7.60;99.90
10873;DHT22;34586;53.616;10.032;2022-10-10T05:18:09;7.60;99.90
10873;DHT22;34586;53.616;10.032;2022-10-10T05:20:34;7.50;99.90
10873;DHT22;34586;53.616;10.032;2022-10-10T05:23:01;7.50;99.90
10873;DHT22;34586;53.616;10.032;2022-10-10T05:25:27;7.50;99.90
10873;DHT22;34586;53.616;10.032;2022-10-10T05:27:53;7.50;99.90
10873;DHT22;34586;53.616;10.032;2022-10-10T05:30:19;7.50;99.90
10873;DHT22;34586;53.616;10.032;2022-10-10T05:32:45;7.50;99.90
10873;DHT22;34586;53.616;10.032;2022-10-10T05:35:10;7.50;99.90
10873;DHT22;34586;53.616;10.032;2022-10-10T05:37:36;7.50;99.90
10873;DHT22;34586;53.616;10.032;2022-10-10T05:40:02;7.50;99.90
10873;DHT22;34586;53.616;10.032;2022-10-10T05:42:28;7.50;99.90
10873;DHT22;34586;53.616;10.032;2022-10-10T05:44:53;7.50;99.90
10873;DHT22;34586;53.616;10.032;2022-10-10T05:47:19;7.50;99.90
10873;DHT22;34586;53.616;10.032;2022-10-10T05:49:45;7.50;99.90
10873;DHT22;34586;53.616;10.032;2022-10-10T05:52:10;7.50;99.90
10873;DHT22;34586;53.616;10.032;2022-10-10T05:54:36;7.50;99.90
10873;DHT22;34586;53.616;10.032;2022-10-10T05:57:01;7.50;99.90
10873;DHT22;34586;53.616;10.032;2022-10-10T05:59:28;7.50;99.90
10873;DHT22;34586;53.616;10.032;2022-10-10T06:01:54;7.50;99.90
10873;DHT22;34586;53.616;10.032;2022-10-10T06:04:21;7.50;99.90
10873;DHT22;34586;53.616;10.032;2022-10-10T06:06:47;7.50;99.90
10873;DHT22;34586;53.616;10.032;2022-10-10T06:09:13;7.50;99.90
10873;DHT22;34586;53.616;10.032;2022-10-10T06:11:39;7.50;92.20
10873;DHT22;34586;53.616;10.032;2022-10-10T06:14:04;7.50;99.90
10873;DHT22;34586;53.616;10.032;2022-10-10T06:16:30;7.60;99.90
10873;DHT22;34586;53.616;10.032;2022-10-10T06:18:56;7.60;99.90
10873;DHT22;34586;53.616;10.032;2022-10-10T06:21:22;7.70;99.90
10873;DHT22;34586;53.616;10.032;2022-10-10T06:23:48;7.70;99.90
10873;DHT22;34586;53.616;10.032;2022-10-10T06:26:14;7.70;99.90
10873;DHT22;34586;53.616;10.032;2022-10-10T06:28:40;7.80;98.00
10873;DHT22;34586;53.616;10.032;2022-10-10T06:31:07;7.80;95.00
10873;DHT22;34586;53.616;10.032;2022-10-10T06:33:34;7.80;97.40
10873;DHT22;34586;53.616;10.032;2022-10-10T06:36:04;7.80;94.30
10873;DHT22;34586;53.616;10.032;2022-10-10T06:38:30;7.90;88.30
10873;DHT22;34586;53.616;10.032;2022-10-10T06:41:00;7.90;67.40
10873;DHT22;34586;53.616;10.032;2022-10-10T06:43:26;8.00;41.00
10873;DHT22;34586;53.616;10.032;2022-10-10T06:45:51;8.00;31.80
10873;DHT22;34586;53.616;10.032;2022-10-10T06:48:17;8.00;56.90
10873;DHT22;34586;53.616;10.032;2022-10-10T06:50:42;8.10;53.20
10873;DHT22;34586;53.616;10.032;2022-10-10T06:53:08;8.10;77.90
10873;DHT22;34586;53.616;10.032;2022-10-10T06:55:34;8.20;61.20
10873;DHT22;34586;53.616;10.032;2022-10-10T06:57:59;8.20;19.50
10873;DHT22;34586;53.616;10.032;2022-10-10T07:00:25;8.30;19.00
10873;DHT22;34586;53.616;10.032;2022-10-10T07:02:50;8.40;32.50
10873;DHT22;34586;53.616;10.032;2022-10-10T07:05:17;8.40;23.00
10873;DHT22;34586;53.616;10.032;2022-10-10T07:07:43;8.50;1.00
10873;DHT22;34586;53.616;10.032;2022-10-10T07:10:14;8.60;1.00
10873;DHT22;34586;53.616;10.032;2022-10-10T07:12:40;8.60;1.00
10873;DHT22;34586;53.616;10.032;2022-10-10T07:15:06;8.60;1.00
10873;DHT22;34586;53.616;10.032;2022-10-10T07:17:32;8.70;1.00
10873;DHT22;34586;53.616;10.032;2022-10-10T07:19:57;8.80;1.00
10873;DHT22;34586;53.616;10.032;2022-10-10T07:22:23;8.90;1.00
10873;DHT22;34586;53.616;10.032;2022-10-10T07:24:49;8.90;1.00
10873;DHT22;34586;53.616;10.032;2022-10-10T07:27:14;9.00;1.00
10873;DHT22;34586;53.616;10.032;2022-10-10T07:29:40;9.10;1.00
10873;DHT22;34586;53.616;10.032;2022-10-10T07:32:06;9.10;1.00
10873;DHT22;34586;53.616;10.032;2022-10-10T07:34:31;9.20;1.00
10873;DHT22;34586;53.616;10.032;2022-10-10T07:36:57;9.20;1.00
10873;DHT22;34586;53.616;10.032;2022-10-10T07:39:24;9.30;1.00
10873;DHT22;34586;53.616;10.032;2022-10-10T07:41:50;9.10;1.00
10873;DHT22;34586;53.616;10.032;2022-10-10T07:44:16;9.40;1.00
10873;DHT22;34586;53.616;10.032;2022-10-10T07:46:42;9.40;1.00
10873;DHT22;34586;53.616;10.032;2022-10-10T07:49:08;9.50;1.00
10873;DHT22;34586;53.616;10.032;2022-10-10T07:51:34;9.60;1.00
10873;DHT22;34586;53.616;10.032;2022-10-10T07:54:00;9.60;1.00
10873;DHT22;34586;53.616;10.032;2022-10-10T07:56:26;9.70;1.00
10873;DHT22;34586;53.616;10.032;2022-10-10T07:58:52;9.80;99.90
10873;DHT22;34586;53.616;10.032;2022-10-10T08:01:18;9.90;99.90
10873;DHT22;34586;53.616;10.032;2022-10-10T08:03:45;9.90;99.90
10873;DHT22;34586;53.616;10.032;2022-10-10T08:06:12;10.00;99.90
10873;DHT22;34586;53.616;10.032;2022-10-10T08:08:39;10.00;99.90
10873;DHT22;34586;53.616;10.032;2022-10-10T08:11:06;10.10;99.90
10873;DHT22;34586;53.616;10.032;2022-10-10T08:13:32;10.10;99.90
10873;DHT22;34586;53.616;10.032;2022-10-10T08:15:58;10.20;99.90
10873;DHT22;34586;53.616;10.032;2022-10-10T08:18:24;10.20;1.00
10873;DHT22;34586;53.616;10.032;2022-10-10T08:21:00;10.30;1.00
10873;DHT22;34586;53.616;10.032;2022-10-10T08:23:26;10.40;1.00
10873;DHT22;34586;53.616;10.032;2022-10-10T08:25:52;10.40;1.00
10873;DHT22;34586;53.616;10.032;2022-10-10T08:28:18;10.40;1.00
10873;DHT22;34586;53.616;10.032;2022-10-10T08:30:44;10.50;99.90
10873;DHT22;34586;53.616;10.032;2022-10-10T08:33:09;10.50;1.00
10873;DHT22;34586;53.616;10.032;2022-10-10T08:35:38;10.60;99.90
10873;DHT22;34586;53.616;10.032;2022-10-10T08:38:04;10.70;99.90
10873;DHT22;34586;53.616;10.032;2022-10-10T08:40:31;10.70;99.90
10873;DHT22;34586;53.616;10.032;2022-10-10T08:43:02;10.70;1.00
10873;DHT22;34586;53.616;10.032;2022-10-10T08:45:29;10.80;1.00
10873;DHT22;34586;53.616;10.032;2022-10-10T08:48:03;10.90;99.90
10873;DHT22;34586;53.616;10.032;2022-10-10T08:50:35;10.90;1.00
10873;DHT22;34586;53.616;10.032;2022-10-10T08:53:42;11.10;1.00
10873;DHT22;34586;53.616;10.032;2022-10-10T08:56:17;11.10;1.00
10873;DHT22;34586;53.616;10.032;2022-10-10T08:58:47;11.20;1.00
10873;DHT22;34586;53.616;10.032;2022-10-10T09:01:18;11.30;26.40
10873;DHT22;34586;53.616;10.032;2022-10-10T09:14:38;11.60;99.90
10873;DHT22;34586;53.616;10.032;2022-10-10T09:17:31;11.70;1.00
10873;DHT22;34586;53.616;10.032;2022-10-10T09:25:33;11.90;1.00
10873;DHT22;34586;53.616;10.032;2022-10-10T09:28:12;11.90;1.00
10873;DHT22;34586;53.616;10.032;2022-10-10T09:30:46;12.00;1.00
10873;DHT22;34586;53.616;10.032;2022-10-10T09:35:52;12.00;99.90
10873;DHT22;34586;53.616;10.032;2022-10-10T09:38:38;12.10;1.00
10873;DHT22;34586;53.616;10.032;2022-10-10T09:41:13;12.20;99.90
10873;DHT22;34586;53.616;10.032;2022-10-10T09:43:41;12.20;1.00
10873;DHT22;34586;53.616;10.032;2022-10-10T09:46:06;12.30;99.90
10873;DHT22;34586;53.616;10.032;2022-10-10T09:48:37;12.30;1.00
10873;DHT22;34586;53.616;10.032;2022-10-10T09:51:07;12.40;1.00
10873;DHT22;34586;53.616;10.032;2022-10-10T09:53:33;12.40;1.00
10873;DHT22;34586;53.616;10.032;2022-10-10T09:55:59;12.60;99.90
10873;DHT22;34586;53.616;10.032;2022-10-10T09:58:41;12.60;1.00
10873;DHT22;34586;53.616;10.032;2022-10-10T10:01:19;12.70;99.90
10873;DHT22;34586;53.616;10.032;2022-10-10T10:04:17;12.90;1.00
10873;DHT22;34586;53.616;10.032;2022-10-10T10:06:49;12.90;99.90
10873;DHT22;34586;53.616;10.032;2022-10-10T10:09:20;13.00;99.90
10873;DHT22;34586;53.616;10.032;2022-10-10T10:11:52;13.10;1.00
10873;DHT22;34586;53.616;10.032;2022-10-10T10:14:25;13.20;1.00
10873;DHT22;34586;53.616;10.032;2022-10-10T10:16:53;13.10;99.90
10873;DHT22;34586;53.616;10.032;2022-10-10T10:19:31;13.10;1.00
10873;DHT22;34586;53.616;10.032;2022-10-10T10:21:57;13.10;99.90
10873;DHT22;34586;53.616;10.032;2022-10-10T10:24:29;13.10;1.00
10873;DHT22;34586;53.616;10.032;2022-10-10T10:27:14;13.10;1.00
10873;DHT22;34586;53.616;10.032;2022-10-10T10:29:45;13.20;99.90
10873;DHT22;34586;53.616;10.032;2022-10-10T10:32:36;13.30;1.00
10873;DHT22;34586;53.616;10.032;2022-10-10T10:35:33;13.40;99.90
10873;DHT22;34586;53.616;10.032;2022-10-10T10:40:46;13.40;99.90
10873;DHT22;34586;53.616;10.032;2022-10-10T10:43:36;13.50;74.70
10873;DHT22;34586;53.616;10.032;2022-10-10T10:56:58;13.90;1.00
10873;DHT22;34586;53.616;10.032;2022-10-10T10:59:41;14.00;1.00
10873;DHT22;34586;53.616;10.032;2022-10-10T11:10:22;14.40;1.00
10873;DHT22;34586;53.616;10.032;2022-10-10T11:15:53;14.50;99.90
10873;DHT22;34586;53.616;10.032;2022-10-10T11:21:22;14.80;99.90
10873;DHT22;34586;53.616;10.032;2022-10-10T11:23:52;14.90;97.20
10873;DHT22;34586;53.616;10.032;2022-10-10T11:26:24;14.90;99.90
10873;DHT22;34586;53.616;10.032;2022-10-10T11:29:04;15.20;99.90
10873;DHT22;34586;53.616;10.032;2022-10-10T11:32:39;15.30;1.00
10873;DHT22;34586;53.616;10.032;2022-10-10T11:37:14;15.60;1.00
10873;DHT22;34586;53.616;10.032;2022-10-10T11:39:48;15.80;99.90
10873;DHT22;34586;53.616;10.032;2022-10-10T11:45:12;16.00;99.90
10873;DHT22;34586;53.616;10.032;2022-10-10T11:47:46;16.10;99.90
10873;DHT22;34586;53.616;10.032;2022-10-10T11:50:18;16.10;51.20
10873;DHT22;34586;53.616;10.032;2022-10-10T11:52:59;16.00;99.90
10873;DHT22;34586;53.616;10.032;2022-10-10T11:55:32;16.10;1.00
10873;DHT22;34586;53.616;10.032;2022-10-10T12:00:43;16.40;1.00
10873;DHT22;34586;53.616;10.032;2022-10-10T12:03:10;16.60;1.00
10873;DHT22;34586;53.616;10.032;2022-10-10T12:05:38;16.70;19.30
10873;DHT22;34586;53.616;10.032;2022-10-10T12:08:19;16.90;1.00
10873;DHT22;34586;53.616;10.032;2022-10-10T12:10:52;17.10;1.00
10873;DHT22;34586;53.616;10.032;2022-10-10T12:13:35;17.30;99.90
10873;DHT22;34586;53.616;10.032;2022-10-10T12:16:06;17.40;99.90
10873;DHT22;34586;53.616;10.032;2022-10-10T12:18:42;17.50;57.70
10873;DHT22;34586;53.616;10.032;2022-10-10T12:21:19;17.70;99.90
10873;DHT22;34586;53.616;10.032;2022-10-10T12:23:49;17.70;1.00
10873;DHT22;34586;53.616;10.032;2022-10-10T12:26:24;17.90;1.00
10873;DHT22;34586;53.616;10.032;2022-10-10T12:28:58;17.90;1.00
10873;DHT22;34586;53.616;10.032;2022-10-10T12:36:49;17.50;1.00
10873;DHT22;34586;53.616;10.032;2022-10-10T12:44:41;17.30;1.00
10873;DHT22;34586;53.616;10.032;2022-10-10T12:49:51;17.50;1.00
10873;DHT22;34586;53.616;10.032;2022-10-10T12:55:14;17.90;1.00
10873;DHT22;34586;53.616;10.032;2022-10-10T12:57:45;18.00;99.90
10873;DHT22;34586;53.616;10.032;2022-10-10T13:00:23;18.10;1.00
10873;DHT22;34586;53.616;10.032;2022-10-10T13:02:56;18.20;33.20
10873;DHT22;34586;53.616;10.032;2022-10-10T13:05:31;18.20;99.90
10873;DHT22;34586;53.616;10.032;2022-10-10T13:08:03;18.10;12.30
10873;DHT22;34586;53.616;10.032;2022-10-10T13:10:30;18.00;1.00
10873;DHT22;34586;53.616;10.032;2022-10-10T13:13:05;18.00;1.00
10873;DHT22;34586;53.616;10.032;2022-10-10T13:15:32;18.20;99.90
10873;DHT22;34586;53.616;10.032;2022-10-10T13:17:59;18.30;68.10
10873;DHT22;34586;53.616;10.032;2022-10-10T13:20:42;18.20;1.00
10873;DHT22;34586;53.616;10.032;2022-10-10T13:23:12;18.10;99.90
10873;DHT22;34586;53.616;10.032;2022-10-10T13:25:39;18.00;99.90
10873;DHT22;34586;53.616;10.032;2022-10-10T13:28:17;18.00;1.00
10873;DHT22;34586;53.616;10.032;2022-10-10T13:30:43;17.90;99.90
10873;DHT22;34586;53.616;10.032;2022-10-10T13:33:17;17.70;1.00
10873;DHT22;34586;53.616;10.032;2022-10-10T13:35:44;17.70;99.90
10873;DHT22;34586;53.616;10.032;2022-10-10T13:38:12;17.70;1.00
10873;DHT22;34586;53.616;10.032;2022-10-10T13:40:40;17.90;1.00
10873;DHT22;34586;53.616;10.032;2022-10-10T13:43:14;17.90;1.00
10873;DHT22;34586;53.616;10.032;2022-10-10T13:45:50;18.10;1.00
10873;DHT22;34586;53.616;10.032;2022-10-10T13:51:09;17.90;99.90
10873;DHT22;34586;53.616;10.032;2022-10-10T13:53:47;17.80;1.00
10873;DHT22;34586;53.616;10.032;2022-10-10T14:06:59;17.20;99.90
10873;DHT22;34586;53.616;10.032;2022-10-10T14:09:39;17.20;1.00
10873;DHT22;34586;53.616;10.032;2022-10-10T14:12:13;17.10;99.90
10873;DHT22;34586;53.616;10.032;2022-10-10T14:14:45;17.00;1.00
10873;DHT22;34586;53.616;10.032;2022-10-10T14:17:12;16.90;1.00
10873;DHT22;34586;53.616;10.032;2022-10-10T14:19:38;16.90;99.90
10873;DHT22;34586;53.616;10.032;2022-10-10T14:22:04;16.90;99.90
10873;DHT22;34586;53.616;10.032;2022-10-10T14:24:29;16.90;1.00
10873;DHT22;34586;53.616;10.032;2022-10-10T14:26:55;16.80;1.00
10873;DHT22;34586;53.616;10.032;2022-10-10T14:29:21;16.90;6.90
10873;DHT22;34586;53.616;10.032;2022-10-10T14:31:47;16.80;1.00
10873;DHT22;34586;53.616;10.032;2022-10-10T14:34:13;16.80;1.00
10873;DHT22;34586;53.616;10.032;2022-10-10T14:36:44;16.80;1.00
10873;DHT22;34586;53.616;10.032;2022-10-10T14:39:13;16.70;1.00
10873;DHT22;34586;53.616;10.032;2022-10-10T14:41:39;16.60;88.40
10873;DHT22;34586;53.616;10.032;2022-10-10T14:44:05;16.60;1.00
10873;DHT22;34586;53.616;10.032;2022-10-10T14:46:31;16.60;1.00
10873;DHT22;34586;53.616;10.032;2022-10-10T14:48:56;16.60;76.40
10873;DHT22;34586;53.616;10.032;2022-10-10T14:51:22;16.50;99.90
10873;DHT22;34586;53.616;10.032;2022-10-10T14:53:47;16.60;1.00
10873;DHT22;34586;53.616;10.032;2022-10-10T14:56:13;16.50;1.00
10873;DHT22;34586;53.616;10.032;2022-10-10T14:58:39;16.50;56.10
10873;DHT22;34586;53.616;10.032;2022-10-10T15:01:04;16.50;1.00
10873;DHT22;34586;53.616;10.032;2022-10-10T15:03:30;16.60;1.00
10873;DHT22;34586;53.616;10.032;2022-10-10T15:05:55;16.50;9.30
10873;DHT22;34586;53.616;10.032;2022-10-10T15:08:21;16.60;1.00
10873;DHT22;34586;53.616;10.032;2022-10-10T15:10:47;16.50;1.00
10873;DHT22;34586;53.616;10.032;2022-10-10T15:13:14;16.40;54.60
10873;DHT22;34586;53.616;10.032;2022-10-10T15:15:40;16.40;79.00
10873;DHT22;34586;53.616;10.032;2022-10-10T15:18:06;16.30;99.90
10873;DHT22;34586;53.616;10.032;2022-10-10T15:20:32;16.30;1.00
10873;DHT22;34586;53.616;10.032;2022-10-10T15:23:00;16.20;99.90
10873;DHT22;34586;53.616;10.032;2022-10-10T15:25:27;16.10;99.90
10873;DHT22;34586;53.616;10.032;2022-10-10T15:27:52;16.00;99.90
10873;DHT22;34586;53.616;10.032;2022-10-10T15:30:18;16.00;1.00
10873;DHT22;34586;53.616;10.032;2022-10-10T15:32:44;16.10;99.90
10873;DHT22;34586;53.616;10.032;2022-10-10T15:35:13;16.00;1.00
10873;DHT22;34586;53.616;10.032;2022-10-10T15:37:39;16.00;1.00
10873;DHT22;34586;53.616;10.032;2022-10-10T15:40:05;15.90;1.00
10873;DHT22;34586;53.616;10.032;2022-10-10T15:42:30;16.00;1.00
10873;DHT22;34586;53.616;10.032;2022-10-10T15:44:56;15.90;1.00
10873;DHT22;34586;53.616;10.032;2022-10-10T15:47:21;15.90;1.00
10873;DHT22;34586;53.616;10.032;2022-10-10T15:49:48;15.90;1.00
10873;DHT22;34586;53.616;10.032;2022-10-10T15:52:14;15.90;1.00
10873;DHT22;34586;53.616;10.032;2022-10-10T15:54:39;15.90;95.20
10873;DHT22;34586;53.616;10.032;2022-10-10T15:57:05;15.90;1.00
10873;DHT22;34586;53.616;10.032;2022-10-10T15:59:31;15.80;1.00
10873;DHT22;34586;53.616;10.032;2022-10-10T16:01:56;15.80;16.00
10873;DHT22;34586;53.616;10.032;2022-10-10T16:04:22;15.80;95.80
10873;DHT22;34586;53.616;10.032;2022-10-10T16:06:49;15.80;1.00
10873;DHT22;34586;53.616;10.032;2022-10-10T16:09:15;15.80;50.20
10873;DHT22;34586;53.616;10.032;2022-10-10T16:11:40;15.80;99.90
10873;DHT22;34586;53.616;10.032;2022-10-10T16:14:06;15.70;99.90
10873;DHT22;34586;53.616;10.032;2022-10-10T16:16:32;15.50;99.90
10873;DHT22;34586;53.616;10.032;2022-10-10T16:18:57;15.50;91.40
10873;DHT22;34586;53.616;10.032;2022-10-10T16:21:24;15.30;99.90
10873;DHT22;34586;53.616;10.032;2022-10-10T16:23:51;15.20;99.90
10873;DHT22;34586;53.616;10.032;2022-10-10T16:26:20;15.10;1.00
10873;DHT22;34586;53.616;10.032;2022-10-10T16:28:47;15.10;1.00
10873;DHT22;34586;53.616;10.032;2022-10-10T16:31:14;15.00;99.90
10873;DHT22;34586;53.616;10.032;2022-10-10T16:33:41;14.90;1.00
10873;DHT22;34586;53.616;10.032;2022-10-10T16:36:09;14.80;99.90
10873;DHT22;34586;53.616;10.032;2022-10-10T16:38:35;14.80;99.90
10873;DHT22;34586;53.616;10.032;2022-10-10T16:41:04;14.70;99.90
10873;DHT22;34586;53.616;10.032;2022-10-10T16:43:30;14.60;1.00
10873;DHT22;34586;53.616;10.032;2022-10-10T16:46:00;14.50;1.00
10873;DHT22;34586;53.616;10.032;2022-10-10T16:48:26;14.50;1.00
10873;DHT22;34586;53.616;10.032;2022-10-10T16:50:52;14.40;1.00
10873;DHT22;34586;53.616;10.032;2022-10-10T16:53:17;14.30;1.00
10873;DHT22;34586;53.616;10.032;2022-10-10T16:55:43;14.20;1.00
10873;DHT22;34586;53.616;10.032;2022-10-10T16:58:10;14.10;53.70
10873;DHT22;34586;53.616;10.032;2022-10-10T17:00:35;14.10;69.80
10873;DHT22;34586;53.616;10.032;2022-10-10T17:03:02;14.00;96.80
10873;DHT22;34586;53.616;10.032;2022-10-10T17:05:28;14.00;99.90
10873;DHT22;34586;53.616;10.032;2022-10-10T17:07:53;14.00;95.80
10873;DHT22;34586;53.616;10.032;2022-10-10T17:10:19;13.90;99.90
10873;DHT22;34586;53.616;10.032;2022-10-10T17:12:45;13.90;99.90
10873;DHT22;34586;53.616;10.032;2022-10-10T17:15:10;13.90;99.90
10873;DHT22;34586;53.616;10.032;2022-10-10T17:17:36;13.70;99.90
10873;DHT22;34586;53.616;10.032;2022-10-10T17:20:03;13.70;99.90
10873;DHT22;34586;53.616;10.032;2022-10-10T17:22:29;13.70;99.90
10873;DHT22;34586;53.616;10.032;2022-10-10T17:24:55;13.70;99.90
10873;DHT22;34586;53.616;10.032;2022-10-10T17:27:20;13.70;99.90
10873;DHT22;34586;53.616;10.032;2022-10-10T17:29:46;13.70;99.90
10873;DHT22;34586;53.616;10.032;2022-10-10T17:32:12;13.60;99.90
10873;DHT22;34586;53.616;10.032;2022-10-10T17:34:37;13.60;99.90
10873;DHT22;34586;53.616;10.032;2022-10-10T17:37:03;13.50;99.90